Aviation Digital Data Service (ADDS)

Output produced by METARs form (1645 UTC 20 January 2019)
found at http://www.aviationweather.gov/metar/data/
 
FKKD 201600Z 22007KT 180V280 9999 SCT013 FEW016CB 30/26 Q1010 NOSIG
TAF FKKD 201100Z 2012/2118 26005KT 8000 BKN016 FEW020CB 
     BECMG 2020/2022 BKN013 FEW020CB 
     TEMPO 2102/2108 TS 
     TEMPO 2104/2108 2000 BR
       
FKKR 201600Z 00000KT CAVOK 36/M03 Q1010 NOSIG
TAF FKKR 200500Z 2006/2018 12006KT CAVOK
       
FKKN 201500Z 32008KT 8000 NSC 31/07 Q1017
FKYS 201600Z /////KT 7000 BKN020 30/21 Q1015 NOSIG
TAF FKYS 201100Z 2012/2112 VRB05KT 6000 BKN020 
     BECMG 2020/2022 BKN006 
     TEMPO 2103/2108 2000 BR